Time;durP1;ratioP1;P1;durP2;ratioP2;P2;SDS_P1;SDS_P2;PMS_P1;PMS_P2;Temp;Humidity;BMP_temperature;BMP_pressure;BME280_temperature;BME280_humidity;BME280_pressure;Samples;Min_cycle;Max_cycle;Signal;HPM_P1;HPM_P2
2023/04/28 00:02:00;;;;;;;12.57;8.90;;;7.00;99.90;;;;;;4979998;28;20054;-72
2023/04/28 00:04:25;;;;;;;10.00;8.63;;;7.00;99.90;;;;;;4967912;28;20272;-72
2023/04/28 00:06:51;;;;;;;14.57;9.63;;;7.10;99.90;;;;;;4969309;28;20307;-72
2023/04/28 00:09:17;;;;;;;12.82;8.77;;;7.00;99.90;;;;;;4986515;28;20128;-72
2023/04/28 00:11:46;;;;;;;12.23;8.85;;;7.00;99.90;;;;;;4962817;28;20533;-72
2023/04/28 00:14:12;;;;;;;10.52;7.90;;;7.00;99.90;;;;;;4985094;28;20125;-72
2023/04/28 00:16:38;;;;;;;10.82;9.70;;;7.00;99.90;;;;;;4969708;28;20066;-72
2023/04/28 00:19:04;;;;;;;9.48;8.32;;;7.00;99.90;;;;;;4986366;28;20038;-72
2023/04/28 00:21:30;;;;;;;14.40;8.63;;;7.00;99.90;;;;;;4964903;28;20050;-73
2023/04/28 00:23:56;;;;;;;12.52;8.75;;;7.00;99.90;;;;;;4990809;28;20118;-72
2023/04/28 00:26:22;;;;;;;11.85;9.15;;;6.90;99.90;;;;;;4970679;28;20070;-72
2023/04/28 00:28:48;;;;;;;12.00;9.00;;;6.90;99.90;;;;;;4973763;28;20043;-73
2023/04/28 00:31:14;;;;;;;11.65;9.20;;;6.90;99.90;;;;;;4962796;28;20314;-73
2023/04/28 00:33:41;;;;;;;10.40;8.73;;;6.90;99.90;;;;;;4956752;28;20038;-73
2023/04/28 00:36:07;;;;;;;9.73;8.40;;;6.80;99.90;;;;;;4969624;28;20368;-72
2023/04/28 00:38:33;;;;;;;13.80;10.13;;;6.80;99.90;;;;;;4967430;28;20045;-72
2023/04/28 00:40:59;;;;;;;10.57;8.63;;;6.80;99.90;;;;;;4967620;28;20047;-71
2023/04/28 00:43:24;;;;;;;10.23;8.80;;;6.80;99.90;;;;;;4967886;28;20050;-72
2023/04/28 00:45:50;;;;;;;13.10;9.25;;;6.80;99.90;;;;;;4972724;28;20042;-72
2023/04/28 00:48:17;;;;;;;14.07;9.00;;;6.80;99.90;;;;;;4985899;28;20275;-72
2023/04/28 00:50:47;;;;;;;10.90;9.70;;;6.80;99.90;;;;;;4983867;28;20074;-71
2023/04/28 00:53:13;;;;;;;10.85;9.70;;;6.70;99.90;;;;;;4961520;28;20142;-72
2023/04/28 00:55:39;;;;;;;15.88;9.95;;;6.70;99.90;;;;;;4972146;28;20049;-72
2023/04/28 00:58:06;;;;;;;11.85;9.45;;;6.70;99.90;;;;;;4968036;28;20046;-72
2023/04/28 01:00:32;;;;;;;11.43;8.50;;;6.70;99.90;;;;;;4970755;28;20097;-72
2023/04/28 01:02:58;;;;;;;13.45;10.02;;;6.70;99.90;;;;;;4986488;28;20038;-71
2023/04/28 01:05:28;;;;;;;10.70;9.60;;;6.70;99.90;;;;;;4971819;28;20046;-73
2023/04/28 01:07:54;;;;;;;18.20;9.75;;;6.80;99.90;;;;;;4971778;28;20518;-72
2023/04/28 01:10:20;;;;;;;13.38;10.10;;;6.80;99.90;;;;;;4970314;28;20034;-72
2023/04/28 01:12:45;;;;;;;13.68;9.95;;;6.80;99.90;;;;;;4969395;28;20055;-72
2023/04/28 01:15:19;;;;;;;11.05;9.07;;;6.70;99.90;;;;;;4961997;28;20107;-72
2023/04/28 01:17:46;;;;;;;12.05;9.75;;;6.80;99.90;;;;;;4967541;28;20447;-73
2023/04/28 01:20:13;;;;;;;13.45;9.82;;;6.70;99.90;;;;;;4968969;28;20038;-72
2023/04/28 01:22:39;;;;;;;12.25;10.07;;;6.70;99.90;;;;;;4973559;28;20113;-73
2023/04/28 01:25:05;;;;;;;13.73;9.93;;;6.70;99.90;;;;;;4992926;28;20117;-72
2023/04/28 01:27:31;;;;;;;15.05;9.43;;;6.70;99.90;;;;;;4969861;28;20050;-72
2023/04/28 01:29:57;;;;;;;10.88;9.65;;;6.70;99.90;;;;;;4975614;28;20039;-72
2023/04/28 01:32:23;;;;;;;13.13;9.68;;;6.70;99.90;;;;;;4979926;28;20152;-72
2023/04/28 01:34:49;;;;;;;13.73;10.02;;;6.70;99.90;;;;;;4957504;28;20050;-72
2023/04/28 01:37:14;;;;;;;11.57;10.10;;;6.70;99.90;;;;;;4972490;28;20039;-72
2023/04/28 01:39:40;;;;;;;13.43;10.20;;;6.70;99.90;;;;;;4987796;28;20406;-72
2023/04/28 01:42:06;;;;;;;12.77;10.43;;;6.70;99.90;;;;;;4974623;28;20077;-72
2023/04/28 01:44:32;;;;;;;13.15;9.95;;;6.70;99.90;;;;;;4973854;28;20063;-72
2023/04/28 01:46:58;;;;;;;16.40;10.88;;;6.60;99.90;;;;;;4974281;28;20066;-72
2023/04/28 01:49:23;;;;;;;15.48;10.23;;;6.60;99.90;;;;;;4970431;28;20042;-72
2023/04/28 01:51:49;;;;;;;11.07;9.98;;;6.60;99.90;;;;;;4973652;28;20199;-72
2023/04/28 01:54:15;;;;;;;13.95;10.57;;;6.70;99.90;;;;;;4971222;28;20053;-72
2023/04/28 01:56:41;;;;;;;14.25;10.25;;;6.70;99.90;;;;;;4968949;28;20038;-71
2023/04/28 01:59:06;;;;;;;12.50;10.57;;;6.70;99.90;;;;;;4959406;28;20086;-72
2023/04/28 02:01:32;;;;;;;16.25;11.43;;;6.70;99.90;;;;;;4972836;28;20073;-71
2023/04/28 02:03:58;;;;;;;14.10;11.20;;;6.80;99.90;;;;;;4979751;28;20042;-72
2023/04/28 02:06:23;;;;;;;13.18;10.00;;;6.70;99.90;;;;;;4966766;28;20090;-71
2023/04/28 02:08:49;;;;;;;12.77;10.18;;;6.70;99.90;;;;;;4968388;28;20122;-71
2023/04/28 02:11:15;;;;;;;14.02;10.80;;;6.70;99.90;;;;;;4971751;28;20414;-72
2023/04/28 02:13:41;;;;;;;13.13;10.50;;;6.80;99.90;;;;;;4979497;28;20046;-72
2023/04/28 02:16:06;;;;;;;12.90;11.18;;;6.80;99.90;;;;;;4966132;28;20058;-72
2023/04/28 02:18:34;;;;;;;13.20;11.75;;;6.80;99.90;;;;;;4970404;28;20042;-72
2023/04/28 02:21:09;;;;;;;14.15;10.60;;;6.80;99.90;;;;;;4973041;28;20125;-72
2023/04/28 02:23:35;;;;;;;16.35;10.90;;;6.80;99.90;;;;;;4972537;28;20118;-73
2023/04/28 02:26:02;;;;;;;16.60;11.00;;;6.80;99.90;;;;;;4972014;28;20042;-72
2023/04/28 02:28:28;;;;;;;16.92;10.93;;;6.80;99.90;;;;;;4975475;28;20048;-73
2023/04/28 02:31:08;;;;;;;12.93;11.52;;;6.80;99.90;;;;;;4975446;28;20042;-72
2023/04/28 02:33:34;;;;;;;12.73;11.18;;;6.80;99.90;;;;;;4970934;28;20566;-72
2023/04/28 02:36:01;;;;;;;18.33;11.57;;;6.80;99.90;;;;;;4967679;28;20050;-72
2023/04/28 02:38:28;;;;;;;14.82;10.95;;;6.80;99.90;;;;;;4974379;28;20030;-72
2023/04/28 02:41:01;;;;;;;12.98;10.73;;;6.80;99.90;;;;;;4958332;28;20267;-72
2023/04/28 02:43:27;;;;;;;13.00;11.68;;;6.80;99.90;;;;;;4969731;28;20066;-72
2023/04/28 02:45:53;;;;;;;15.25;12.45;;;6.70;99.90;;;;;;4979951;28;20172;-72
2023/04/28 02:48:19;;;;;;;14.85;11.20;;;6.70;99.90;;;;;;4973141;28;20034;-72
2023/04/28 02:50:45;;;;;;;16.85;12.07;;;6.70;99.90;;;;;;4986736;28;20043;-71
2023/04/28 02:53:11;;;;;;;15.43;11.48;;;6.70;99.90;;;;;;4966744;28;20090;-72
2023/04/28 02:55:37;;;;;;;15.82;11.35;;;6.70;99.90;;;;;;4973360;28;20031;-72
2023/04/28 02:58:03;;;;;;;14.20;12.48;;;6.70;99.90;;;;;;4988366;28;20126;-71
2023/04/28 03:00:29;;;;;;;14.68;11.63;;;6.70;99.90;;;;;;4958778;28;20039;-72
2023/04/28 03:02:54;;;;;;;14.43;12.35;;;6.60;99.90;;;;;;4973239;28;20038;-72
2023/04/28 03:05:20;;;;;;;16.48;12.75;;;6.60;99.90;;;;;;4975361;28;20395;-72
2023/04/28 03:07:46;;;;;;;18.45;12.73;;;6.70;99.90;;;;;;4971450;28;20046;-72
2023/04/28 03:10:12;;;;;;;16.00;12.88;;;6.60;99.90;;;;;;4972146;28;20173;-72
2023/04/28 03:12:37;;;;;;;15.25;11.60;;;6.60;99.90;;;;;;4977043;28;20045;-71
2023/04/28 03:15:03;;;;;;;14.63;12.15;;;6.60;99.90;;;;;;4973116;28;20122;-71
2023/04/28 03:17:29;;;;;;;14.98;12.55;;;6.50;99.90;;;;;;4970557;28;20070;-72
2023/04/28 03:19:55;;;;;;;15.93;12.38;;;6.50;99.90;;;;;;4954669;28;20031;-72
2023/04/28 03:22:20;;;;;;;16.95;12.48;;;6.50;99.90;;;;;;4990037;28;20038;-72
2023/04/28 03:24:46;;;;;;;16.55;12.52;;;6.60;99.90;;;;;;4970470;28;20039;-72
2023/04/28 03:27:12;;;;;;;14.23;12.73;;;6.60;99.90;;;;;;4954487;28;20435;-72
2023/04/28 03:29:37;;;;;;;15.00;12.55;;;6.60;99.90;;;;;;4974828;28;20034;-72
2023/04/28 03:32:03;;;;;;;16.52;12.50;;;6.60;99.90;;;;;;4975025;28;20147;-72
2023/04/28 03:34:29;;;;;;;17.42;13.45;;;6.60;99.90;;;;;;4974254;28;20038;-72
2023/04/28 03:36:55;;;;;;;16.95;13.15;;;6.60;99.90;;;;;;4972853;28;20038;-72
2023/04/28 03:39:20;;;;;;;16.58;12.80;;;6.60;99.90;;;;;;4969658;28;20034;-72
2023/04/28 03:41:46;;;;;;;16.73;12.13;;;6.60;99.90;;;;;;4964901;28;20075;-72
2023/04/28 03:44:12;;;;;;;19.33;12.77;;;6.50;99.90;;;;;;4968725;28;20129;-72
2023/04/28 03:46:39;;;;;;;14.88;12.85;;;6.60;99.90;;;;;;4972598;28;20044;-72
2023/04/28 03:49:05;;;;;;;15.73;12.38;;;6.60;99.90;;;;;;4970219;28;20057;-72
2023/04/28 03:51:31;;;;;;;13.95;12.45;;;6.50;99.90;;;;;;4966155;28;20442;-72
2023/04/28 03:53:57;;;;;;;15.48;12.27;;;6.50;99.90;;;;;;4972116;28;20366;-72
2023/04/28 03:56:23;;;;;;;16.88;12.80;;;6.60;99.90;;;;;;4971969;28;20043;-72
2023/04/28 03:58:49;;;;;;;17.60;13.35;;;6.50;99.90;;;;;;4970820;28;20119;-72
2023/04/28 04:01:14;;;;;;;16.45;12.93;;;6.50;99.90;;;;;;4966164;28;20301;-72
2023/04/28 04:03:40;;;;;;;17.88;13.10;;;6.60;99.90;;;;;;4968872;28;20132;-72
2023/04/28 04:06:06;;;;;;;16.45;13.63;;;6.60;99.90;;;;;;4972547;28;20038;-72
2023/04/28 04:08:32;;;;;;;15.90;13.18;;;6.60;99.90;;;;;;4969877;28;20109;-72
2023/04/28 04:11:05;;;;;;;17.45;13.52;;;6.60;99.90;;;;;;5070441;28;20448;-71
2023/04/28 04:13:31;;;;;;;18.58;13.65;;;6.60;99.90;;;;;;5060277;28;20041;-71
2023/04/28 04:15:57;;;;;;;15.85;13.25;;;6.50;99.90;;;;;;5060236;28;20557;-71
2023/04/28 04:18:22;;;;;;;18.55;12.95;;;6.60;99.90;;;;;;5050334;28;20048;-71
2023/04/28 04:20:49;;;;;;;16.92;13.60;;;6.50;99.90;;;;;;5052052;28;20099;-71
2023/04/28 04:23:15;;;;;;;17.70;12.75;;;6.60;99.90;;;;;;5040302;28;20069;-71
2023/04/28 04:25:41;;;;;;;16.05;13.43;;;6.60;99.90;;;;;;5041582;28;20041;-72
2023/04/28 04:28:07;;;;;;;19.63;14.35;;;6.60;99.90;;;;;;5052014;28;20484;-72
2023/04/28 04:30:32;;;;;;;17.83;14.10;;;6.60;99.90;;;;;;5040682;28;20044;-72
2023/04/28 04:32:58;;;;;;;16.38;13.95;;;6.50;99.90;;;;;;5055738;28;20071;-71
2023/04/28 04:35:24;;;;;;;18.08;14.43;;;6.50;99.90;;;;;;5049848;28;20037;-71
2023/04/28 04:37:50;;;;;;;21.55;14.18;;;6.50;99.90;;;;;;5050180;28;20045;-72
2023/04/28 04:40:16;;;;;;;18.88;14.63;;;6.60;99.90;;;;;;5056266;28;20037;-71
2023/04/28 04:42:41;;;;;;;19.27;13.98;;;6.50;99.90;;;;;;5059094;28;20041;-71
2023/04/28 04:45:08;;;;;;;20.60;15.10;;;6.60;99.90;;;;;;5056537;28;20045;-71
2023/04/28 04:47:34;;;;;;;21.23;14.10;;;6.60;99.90;;;;;;5055361;28;20037;-71
2023/04/28 04:49:59;;;;;;;20.33;14.38;;;6.60;99.90;;;;;;5036768;28;20037;-71
2023/04/28 04:52:25;;;;;;;16.52;14.10;;;6.60;99.90;;;;;;5056847;28;20039;-72
2023/04/28 04:54:51;;;;;;;18.67;14.73;;;6.60;99.90;;;;;;5049448;28;20053;-72
2023/04/28 04:57:17;;;;;;;16.17;13.10;;;6.60;99.90;;;;;;5028935;28;20160;-72
2023/04/28 04:59:42;;;;;;;18.02;13.48;;;6.60;99.90;;;;;;5028468;28;20111;-72
2023/04/28 05:02:08;;;;;;;20.40;14.55;;;6.60;99.90;;;;;;5027750;28;20529;-72
2023/04/28 05:04:34;;;;;;;17.67;14.40;;;6.60;99.90;;;;;;5029615;28;20049;-72
2023/04/28 05:07:00;;;;;;;17.63;14.00;;;6.70;99.90;;;;;;5028925;28;20516;-72
2023/04/28 05:09:26;;;;;;;19.20;14.20;;;6.60;99.90;;;;;;5029048;28;20064;-72
2023/04/28 05:11:51;;;;;;;20.10;13.77;;;6.70;99.90;;;;;;5028639;28;20037;-71
2023/04/28 05:14:17;;;;;;;18.25;13.75;;;6.70;99.90;;;;;;5029215;28;20080;-72
2023/04/28 05:16:43;;;;;;;15.75;13.75;;;6.70;99.90;;;;;;5027313;28;20042;-72
2023/04/28 05:19:08;;;;;;;18.60;13.57;;;6.80;99.90;;;;;;5028394;28;20421;-72
2023/04/28 05:21:34;;;;;;;16.50;13.27;;;6.90;99.90;;;;;;5019781;28;20046;-74
2023/04/28 05:24:00;;;;;;;16.80;13.77;;;6.90;99.90;;;;;;5029383;28;20169;-72
2023/04/28 05:26:26;;;;;;;15.00;13.13;;;6.90;99.90;;;;;;5014929;28;20053;-72
2023/04/28 05:28:53;;;;;;;17.20;12.73;;;7.00;99.90;;;;;;5015045;28;20125;-73
2023/04/28 05:31:18;;;;;;;14.73;12.57;;;7.00;99.90;;;;;;5014583;28;20482;-72
2023/04/28 05:33:44;;;;;;;16.88;13.73;;;7.00;99.90;;;;;;5013978;28;20025;-72
2023/04/28 05:36:10;;;;;;;16.92;14.15;;;7.10;99.90;;;;;;5016037;28;20121;-72
2023/04/28 05:38:36;;;;;;;18.65;12.77;;;7.10;99.90;;;;;;5015028;28;20050;-72
2023/04/28 05:41:02;;;;;;;16.92;12.77;;;7.10;99.90;;;;;;5014693;28;20041;-72
2023/04/28 05:43:27;;;;;;;14.38;12.10;;;7.10;99.90;;;;;;5014614;28;20072;-72
2023/04/28 05:45:53;;;;;;;14.90;12.40;;;7.20;99.90;;;;;;5015253;28;20129;-72
2023/04/28 05:48:19;;;;;;;15.10;12.48;;;7.20;99.90;;;;;;5030439;28;20052;-72
2023/04/28 05:50:45;;;;;;;17.23;12.95;;;7.30;99.90;;;;;;4998654;28;20429;-72
2023/04/28 05:53:11;;;;;;;14.70;12.82;;;7.30;99.90;;;;;;5015086;28;20046;-72
2023/04/28 05:55:37;;;;;;;16.30;11.98;;;7.30;99.90;;;;;;5030582;28;20131;-72
2023/04/28 05:58:03;;;;;;;18.55;13.15;;;7.30;99.90;;;;;;5012612;28;20053;-72
2023/04/28 06:00:29;;;;;;;13.63;11.90;;;7.30;99.90;;;;;;5015685;28;20038;-72
2023/04/28 06:02:55;;;;;;;14.25;11.80;;;7.30;99.90;;;;;;5013736;28;20125;-71
2023/04/28 06:05:21;;;;;;;17.70;12.15;;;7.30;99.90;;;;;;5014202;28;20037;-72
2023/04/28 06:07:47;;;;;;;17.13;12.23;;;7.30;99.90;;;;;;5014501;28;20147;-72
2023/04/28 06:10:13;;;;;;;16.00;12.00;;;7.30;99.90;;;;;;5013920;28;20074;-72
2023/04/28 06:12:38;;;;;;;14.93;12.32;;;7.30;99.90;;;;;;5013859;28;20116;-72
2023/04/28 06:15:05;;;;;;;14.30;12.32;;;7.30;99.90;;;;;;5013696;28;20048;-72
2023/04/28 06:17:32;;;;;;;15.90;12.60;;;7.30;99.90;;;;;;5013159;28;20144;-72
2023/04/28 06:19:58;;;;;;;14.65;12.43;;;7.30;99.90;;;;;;5012949;28;20041;-72
2023/04/28 06:22:24;;;;;;;14.63;11.70;;;7.30;99.90;;;;;;5014161;28;20045;-72
2023/04/28 06:24:50;;;;;;;18.23;12.45;;;7.30;99.90;;;;;;5011443;28;20037;-72
2023/04/28 06:27:16;;;;;;;13.35;11.20;;;7.30;99.90;;;;;;5013110;28;20049;-72
2023/04/28 06:29:42;;;;;;;15.90;11.88;;;7.40;99.90;;;;;;4997359;28;20050;-72
2023/04/28 06:32:08;;;;;;;16.02;12.15;;;7.40;99.90;;;;;;5012891;28;20374;-71
2023/04/28 06:34:34;;;;;;;18.63;12.30;;;7.40;99.90;;;;;;5014544;28;20037;-71
2023/04/28 06:37:00;;;;;;;14.40;11.45;;;7.40;99.90;;;;;;5013137;28;20069;-71
2023/04/28 06:39:26;;;;;;;16.70;12.00;;;7.40;99.90;;;;;;5015299;28;20042;-71
2023/04/28 06:41:52;;;;;;;14.00;11.70;;;7.50;99.90;;;;;;5030266;28;20037;-71
2023/04/28 06:44:18;;;;;;;16.70;11.93;;;7.50;99.90;;;;;;5013960;28;20522;-71
2023/04/28 06:46:43;;;;;;;15.77;12.32;;;7.40;99.90;;;;;;5013266;28;20056;-71
2023/04/28 06:49:09;;;;;;;16.13;12.30;;;7.50;99.90;;;;;;5014140;28;20401;-71
2023/04/28 06:51:35;;;;;;;17.30;11.82;;;7.50;99.90;;;;;;5013796;28;20041;-71
2023/04/28 06:54:01;;;;;;;16.10;11.48;;;7.50;99.90;;;;;;5008116;28;20128;-72
2023/04/28 06:56:27;;;;;;;14.95;10.98;;;7.50;99.90;;;;;;5013825;28;20065;-72
2023/04/28 06:58:55;;;;;;;14.98;11.25;;;7.60;99.90;;;;;;5014323;28;20044;-71
2023/04/28 07:01:21;;;;;;;14.57;11.10;;;7.60;99.90;;;;;;5028654;28;20041;-71
2023/04/28 07:03:47;;;;;;;17.17;11.05;;;7.70;99.90;;;;;;5014135;28;20069;-71
2023/04/28 07:06:13;;;;;;;15.18;11.13;;;7.70;99.90;;;;;;5012743;28;20049;-71
2023/04/28 07:08:40;;;;;;;13.55;10.68;;;7.80;99.90;;;;;;5013553;28;20052;-71
2023/04/28 07:11:06;;;;;;;13.93;11.45;;;7.80;99.90;;;;;;5013603;28;20512;-72
2023/04/28 07:13:32;;;;;;;13.35;11.38;;;7.90;99.90;;;;;;5013528;28;20034;-72
2023/04/28 07:15:58;;;;;;;14.05;10.85;;;8.00;99.90;;;;;;5013003;28;20038;-71
2023/04/28 07:18:23;;;;;;;15.05;11.07;;;8.00;99.90;;;;;;5011711;28;20506;-72
2023/04/28 07:20:50;;;;;;;14.27;10.55;;;8.10;99.90;;;;;;5013712;28;20041;-72
2023/04/28 07:23:16;;;;;;;13.07;11.18;;;8.20;99.90;;;;;;5013753;28;20037;-72
2023/04/28 07:25:42;;;;;;;12.50;10.02;;;8.20;99.90;;;;;;5028027;28;20477;-72
2023/04/28 07:28:08;;;;;;;12.75;10.15;;;8.30;99.90;;;;;;5013393;28;20445;-72
2023/04/28 07:30:35;;;;;;;15.30;10.55;;;8.30;99.90;;;;;;5012709;28;20038;-72
2023/04/28 07:33:01;;;;;;;14.02;9.88;;;8.30;99.90;;;;;;5012199;28;20373;-72
2023/04/28 07:35:27;;;;;;;11.50;10.05;;;8.30;99.90;;;;;;4997015;28;20049;-72
2023/04/28 07:37:53;;;;;;;14.50;10.73;;;8.30;99.90;;;;;;5029709;28;20030;-72
2023/04/28 07:40:20;;;;;;;13.63;9.90;;;8.40;99.90;;;;;;5029284;28;20049;-72
2023/04/28 07:42:46;;;;;;;13.73;10.15;;;8.50;99.90;;;;;;5003009;28;20061;-72
2023/04/28 07:45:14;;;;;;;14.30;10.07;;;8.70;99.90;;;;;;5011984;28;20038;-72
2023/04/28 07:47:40;;;;;;;12.55;10.05;;;8.80;99.90;;;;;;5011040;28;20053;-72
2023/04/28 07:50:06;;;;;;;14.38;9.90;;;8.90;99.90;;;;;;5012844;28;20046;-72
2023/04/28 07:52:33;;;;;;;12.10;9.85;;;9.00;99.90;;;;;;5026736;28;20081;-72
2023/04/28 07:54:59;;;;;;;12.60;9.35;;;9.00;99.90;;;;;;5025567;28;20037;-72
2023/04/28 07:57:25;;;;;;;16.02;10.02;;;9.10;99.90;;;;;;5028835;28;20050;-72
2023/04/28 07:59:51;;;;;;;11.90;9.75;;;9.30;99.90;;;;;;5013059;28;20123;-72
2023/04/28 08:02:19;;;;;;;12.02;9.80;;;9.30;99.90;;;;;;5027802;28;20042;-72
2023/04/28 08:04:45;;;;;;;11.65;10.00;;;9.30;99.90;;;;;;5011298;28;20729;-72
2023/04/28 08:07:11;;;;;;;12.63;8.82;;;9.30;99.90;;;;;;5028690;28;20370;-72
2023/04/28 08:09:38;;;;;;;11.07;9.32;;;9.30;99.90;;;;;;5029174;28;20231;-72
2023/04/28 08:12:04;;;;;;;13.18;9.77;;;9.30;99.90;;;;;;5028354;28;20054;-72
2023/04/28 08:14:30;;;;;;;11.95;10.02;;;9.30;99.90;;;;;;5012341;28;20125;-72
2023/04/28 08:16:56;;;;;;;12.52;8.88;;;9.40;99.90;;;;;;5026245;28;20042;-72
2023/04/28 08:19:23;;;;;;;11.07;9.65;;;9.50;99.90;;;;;;5011383;28;20042;-72
2023/04/28 08:21:48;;;;;;;11.52;9.15;;;9.60;99.90;;;;;;5012073;28;20140;-72
2023/04/28 08:24:14;;;;;;;14.70;8.95;;;9.60;99.90;;;;;;5029249;28;20042;-72
2023/04/28 08:26:40;;;;;;;11.25;9.68;;;9.60;99.90;;;;;;5012237;28;20045;-72
2023/04/28 08:29:06;;;;;;;10.75;8.75;;;9.70;99.90;;;;;;4996268;28;20057;-72
2023/04/28 08:31:31;;;;;;;11.45;9.98;;;9.70;99.90;;;;;;5005687;28;20033;-72
2023/04/28 08:33:57;;;;;;;11.35;9.30;;;9.70;99.90;;;;;;5028548;28;20045;-72
2023/04/28 08:36:25;;;;;;;11.82;9.93;;;9.70;99.90;;;;;;5024206;28;20493;-72
2023/04/28 08:38:51;;;;;;;12.00;9.45;;;9.70;99.90;;;;;;5011251;28;20050;-72
2023/04/28 08:41:18;;;;;;;11.63;9.02;;;9.60;99.90;;;;;;5009671;28;20042;-71
2023/04/28 08:43:44;;;;;;;12.05;9.52;;;9.60;99.90;;;;;;5025356;28;20042;-71
2023/04/28 08:46:10;;;;;;;11.38;9.70;;;9.60;99.90;;;;;;5023895;28;20081;-71
2023/04/28 08:48:42;;;;;;;14.32;10.38;;;9.60;99.90;;;;;;5008193;28;20034;-71
2023/04/28 08:51:08;;;;;;;13.00;10.00;;;9.60;99.90;;;;;;5024321;28;20050;-71
2023/04/28 08:53:37;;;;;;;11.75;9.30;;;9.70;99.90;;;;;;5024553;28;20052;-71
2023/04/28 08:56:06;;;;;;;11.18;9.25;;;9.70;99.90;;;;;;5025004;28;20104;-71
2023/04/28 08:58:34;;;;;;;11.50;9.70;;;9.80;99.90;;;;;;5012039;28;20053;-71
2023/04/28 09:01:03;;;;;;;12.70;10.30;;;9.80;99.90;;;;;;5027475;28;20045;-71
2023/04/28 09:03:29;;;;;;;10.98;9.65;;;10.00;99.90;;;;;;4983924;28;20040;-71
2023/04/28 09:05:55;;;;;;;15.13;10.02;;;10.30;99.90;;;;;;5013699;28;20328;-71
2023/04/28 09:08:21;;;;;;;12.18;9.35;;;10.80;99.90;;;;;;5012062;28;20141;-71
2023/04/28 09:10:46;;;;;;;11.88;9.30;;;11.30;99.90;;;;;;5012147;28;20557;-71
2023/04/28 09:13:24;;;;;;;10.25;9.20;;;11.50;99.90;;;;;;5027690;28;20042;-71
2023/04/28 09:15:57;;;;;;;14.80;9.98;;;11.40;99.90;;;;;;5012302;28;20089;-71
2023/04/28 09:18:23;;;;;;;9.77;8.77;;;11.40;99.90;;;;;;4993127;28;20212;-72
2023/04/28 09:20:49;;;;;;;11.13;9.50;;;11.40;99.90;;;;;;5012510;28;20124;-71
2023/04/28 09:23:19;;;;;;;12.13;9.50;;;11.30;99.90;;;;;;4985319;28;20124;-71
2023/04/28 09:26:15;;;;;;;12.57;9.07;;;11.40;99.90;;;;;;5029081;28;20129;-72
2023/04/28 09:28:40;;;;;;;;;;;11.50;99.90;;;;;;4979659;28;20448;-72
2023/04/28 09:31:24;;;;;;;11.38;8.77;;;11.50;99.90;;;;;;5012533;28;20154;-72
2023/04/28 09:33:59;;;;;;;13.10;11.70;;;11.60;99.90;;;;;;5012126;28;20421;-72
2023/04/28 09:36:29;;;;;;;9.85;8.68;;;11.70;99.90;;;;;;5011699;28;20046;-72
2023/04/28 09:38:58;;;;;;;11.93;9.02;;;11.70;99.90;;;;;;5028985;28;20042;-72
2023/04/28 09:41:39;;;;;;;11.40;8.98;;;11.90;99.90;;;;;;4984160;28;20141;-72
2023/04/28 09:44:17;;;;;;;9.95;8.95;;;12.20;99.90;;;;;;5027431;28;20319;-72
2023/04/28 09:46:44;;;;;;;11.48;8.70;;;12.70;99.90;;;;;;5010729;28;20044;-73
2023/04/28 09:49:12;;;;;;;12.27;7.80;;;13.50;99.90;;;;;;5012531;28;20056;-73
2023/04/28 09:51:38;;;;;;;9.10;8.05;;;14.10;99.90;;;;;;5028748;28;20049;-74
2023/04/28 09:54:04;;;;;;;9.80;8.70;;;14.60;99.90;;;;;;5028658;28;20034;-73
2023/04/28 09:56:31;;;;;;;9.95;8.02;;;14.80;99.90;;;;;;5027770;28;20060;-73
2023/04/28 09:58:58;;;;;;;8.68;7.70;;;14.90;99.90;;;;;;5028212;28;20046;-73
2023/04/28 10:01:31;;;;;;;9.35;7.93;;;14.80;99.90;;;;;;5028292;28;20398;-73
2023/04/28 10:03:58;;;;;;;11.48;8.32;;;14.40;99.90;;;;;;5012085;28;20053;-73
2023/04/28 10:06:26;;;;;;;9.40;8.30;;;14.10;99.90;;;;;;5012859;28;20073;-73
2023/04/28 10:08:52;;;;;;;10.30;8.15;;;14.00;99.90;;;;;;5028274;28;20497;-73
2023/04/28 10:11:19;;;;;;;10.00;7.63;;;13.90;99.90;;;;;;5012208;28;20144;-74
2023/04/28 10:13:45;;;;;;;10.68;7.88;;;14.00;99.90;;;;;;5025650;28;20129;-74
2023/04/28 10:16:13;;;;;;;8.73;7.60;;;13.90;99.90;;;;;;5011377;28;20037;-74
2023/04/28 10:18:39;;;;;;;9.02;8.13;;;13.80;99.90;;;;;;5025342;28;20065;-73
2023/04/28 10:21:06;;;;;;;9.25;8.35;;;13.80;99.90;;;;;;5013300;28;20069;-73
2023/04/28 10:23:56;;;;;;;9.98;8.07;;;13.80;99.90;;;;;;5013523;28;20279;-73
2023/04/28 10:26:35;;;;;;;10.40;8.00;;;13.70;99.90;;;;;;5027386;28;20474;-73
2023/04/28 10:29:02;;;;;;;9.63;7.78;;;13.60;99.90;;;;;;5012812;28;20180;-73
2023/04/28 10:31:28;;;;;;;10.77;8.43;;;13.60;99.90;;;;;;5012944;28;20849;-73
2023/04/28 10:33:54;;;;;;;11.40;7.40;;;13.70;99.90;;;;;;5028018;28;20054;-74
2023/04/28 10:36:51;;;;;;;12.55;7.90;;;13.70;99.90;;;;;;5029908;28;20038;-73
2023/04/28 10:39:17;;;;;;;9.82;7.78;;;13.80;99.90;;;;;;5001082;28;20141;-74
2023/04/28 10:41:46;;;;;;;10.40;7.95;;;14.00;99.90;;;;;;5013354;28;20037;-74
2023/04/28 10:44:27;;;;;;;10.70;7.65;;;14.20;99.90;;;;;;5012425;28;20420;-74
2023/04/28 10:47:03;;;;;;;10.55;8.32;;;14.50;99.90;;;;;;5010927;28;20498;-73
2023/04/28 10:49:54;;;;;;;9.70;6.90;;;14.80;99.90;;;;;;5016830;28;20042;-73
2023/04/28 10:52:35;;;;;;;8.77;7.18;;;15.10;99.90;;;;;;4995535;28;20038;-74
2023/04/28 10:55:38;;;;;;;9.25;7.50;;;15.10;99.90;;;;;;5011447;28;20045;-74
2023/04/28 10:58:17;;;;;;;9.15;8.25;;;15.10;99.90;;;;;;5011246;28;20069;-73
2023/04/28 11:00:46;;;;;;;10.00;8.15;;;14.90;99.90;;;;;;5001576;28;20057;-74
2023/04/28 11:03:40;;;;;;;12.13;8.18;;;14.80;99.90;;;;;;5008879;28;20046;-73
2023/04/28 11:06:25;;;;;;;10.18;7.53;;;14.70;99.90;;;;;;5009696;28;20048;-73
2023/04/28 11:08:56;;;;;;;8.85;7.22;;;14.60;99.90;;;;;;5012482;28;20391;-73
2023/04/28 11:11:26;;;;;;;8.25;7.07;;;14.50;99.90;;;;;;5004152;28;20441;-73
2023/04/28 11:13:54;;;;;;;10.88;7.28;;;14.40;99.90;;;;;;5011533;28;20044;-73
2023/04/28 11:16:22;;;;;;;8.20;7.40;;;14.40;99.90;;;;;;5011726;28;20608;-73
2023/04/28 11:18:55;;;;;;;9.85;7.45;;;14.40;99.90;;;;;;5009941;28;20041;-73
2023/04/28 11:21:23;;;;;;;9.75;7.25;;;14.40;99.90;;;;;;4995891;28;20072;-74
2023/04/28 11:23:49;;;;;;;8.40;7.55;;;14.40;99.90;;;;;;5028451;28;20282;-73
2023/04/28 11:26:15;;;;;;;9.00;8.05;;;14.40;99.90;;;;;;5028089;28;20093;-73
2023/04/28 11:28:49;;;;;;;8.65;7.00;;;14.50;99.90;;;;;;4986728;28;20502;-73
2023/04/28 11:31:21;;;;;;;9.30;7.82;;;14.60;99.90;;;;;;5028114;28;20077;-74
2023/04/28 11:33:54;;;;;;;8.18;7.25;;;14.60;99.90;;;;;;5028391;28;20402;-73
2023/04/28 11:36:23;;;;;;;7.93;7.18;;;14.60;99.90;;;;;;4995693;28;20041;-73
2023/04/28 11:38:49;;;;;;;10.02;7.63;;;14.60;99.90;;;;;;5009721;28;20417;-73
2023/04/28 11:41:15;;;;;;;8.25;7.10;;;14.50;99.90;;;;;;5012810;28;20042;-73
2023/04/28 11:43:41;;;;;;;8.50;7.15;;;14.50;99.90;;;;;;5028569;28;20062;-73
2023/04/28 11:46:07;;;;;;;9.82;7.65;;;14.50;99.90;;;;;;5028684;28;20041;-73
2023/04/28 11:48:33;;;;;;;8.07;6.90;;;14.50;99.90;;;;;;4996417;28;20513;-74
2023/04/28 11:50:59;;;;;;;9.80;7.03;;;14.40;99.90;;;;;;5030232;28;20030;-74
2023/04/28 11:53:44;;;;;;;8.65;6.65;;;14.30;99.90;;;;;;5031442;28;20095;-74
2023/04/28 11:56:09;;;;;;;;;;;14.30;99.90;;;;;;5022874;28;20044;-74
2023/04/28 11:58:35;;;;;;;8.93;7.15;;;14.20;99.90;;;;;;5008225;28;19961;-75
2023/04/28 12:01:12;;;;;;;9.15;6.88;;;14.10;99.90;;;;;;5032245;28;20070;-74
2023/04/28 12:03:45;;;;;;;8.10;6.15;;;14.10;99.90;;;;;;5014881;28;20041;-74
2023/04/28 12:06:11;;;;;;;9.05;7.28;;;14.20;99.90;;;;;;5014981;28;20042;-74
2023/04/28 12:08:40;;;;;;;10.18;7.00;;;14.20;99.90;;;;;;4998151;28;20399;-74
2023/04/28 12:11:13;;;;;;;8.98;7.97;;;14.20;99.90;;;;;;4989164;28;20057;-74
2023/04/28 12:13:39;;;;;;;9.30;8.27;;;14.30;99.90;;;;;;5013124;28;20049;-74
2023/04/28 12:16:06;;;;;;;10.00;8.68;;;14.30;99.90;;;;;;5029763;28;20042;-74
2023/04/28 12:18:33;;;;;;;9.50;8.25;;;14.40;99.90;;;;;;4994868;28;20501;-74
2023/04/28 12:20:59;;;;;;;9.20;8.30;;;14.60;99.90;;;;;;4996935;28;20124;-74
2023/04/28 12:23:32;;;;;;;8.88;7.85;;;14.80;99.90;;;;;;5013447;28;20124;-75
2023/04/28 12:25:59;;;;;;;8.68;7.47;;;14.90;99.90;;;;;;5030595;28;20038;-75
2023/04/28 12:28:39;;;;;;;10.18;8.18;;;14.90;99.90;;;;;;4998454;28;20048;-75
2023/04/28 12:31:08;;;;;;;9.32;8.32;;;14.70;99.90;;;;;;5025378;28;20050;-75
2023/04/28 12:33:38;;;;;;;11.27;8.48;;;14.70;99.90;;;;;;5009933;28;20046;-75
2023/04/28 12:36:07;;;;;;;11.48;8.88;;;14.70;99.90;;;;;;5002951;28;20042;-74
2023/04/28 12:38:32;;;;;;;10.02;8.85;;;14.70;99.90;;;;;;5035221;28;20552;-75
2023/04/28 12:40:59;;;;;;;11.70;9.02;;;14.60;99.90;;;;;;5004031;28;20076;-75
2023/04/28 12:43:27;;;;;;;11.15;9.52;;;14.60;99.90;;;;;;5035117;28;20042;-75